Time;durP1;ratioP1;P1;durP2;ratioP2;P2;SDS_P1;SDS_P2;PMS_P1;PMS_P2;Temp;Humidity;BMP_temperature;BMP_pressure;BME280_temperature;BME280_humidity;BME280_pressure;Samples;Min_cycle;Max_cycle;Signal;HPM_P1;HPM_P2
2023/12/02 00:00:10;;;;;;;;;;;17.90;99.90;;;;;;5076158;28;20058;-65
2023/12/02 00:02:37;;;;;;;;;;;17.90;99.90;;;;;;5068352;28;19913;-65
2023/12/02 00:05:03;;;;;;;;;;;17.90;99.90;;;;;;5055552;28;20012;-68
2023/12/02 00:07:29;;;;;;;;;;;17.90;99.90;;;;;;5055928;28;19943;-68
2023/12/02 00:09:55;;;;;;;;;;;17.90;99.90;;;;;;5055609;28;20376;-68
2023/12/02 00:12:21;;;;;;;;;;;17.90;99.90;;;;;;5056035;28;19943;-68
2023/12/02 00:14:46;;;;;;;;;;;18.00;99.90;;;;;;5056024;28;20004;-68
2023/12/02 00:17:12;;;;;;;;;;;18.00;99.90;;;;;;5054830;28;19916;-66
2023/12/02 00:19:38;;;;;;;;;;;18.00;99.90;;;;;;5059434;28;19928;-68
2023/12/02 00:22:06;;;;;;;;;;;18.00;99.90;;;;;;5066703;28;19916;-67
2023/12/02 00:24:33;;;;;;;;;;;18.00;99.90;;;;;;5062836;28;19913;-68
2023/12/02 00:26:58;;;;;;;;;;;18.00;99.90;;;;;;5061928;28;19947;-67
2023/12/02 00:29:24;;;;;;;;;;;18.00;99.90;;;;;;5073989;28;19939;-67
2023/12/02 00:31:50;;;;;;;;;;;17.90;99.90;;;;;;5071425;28;19915;-68
2023/12/02 00:34:16;;;;;;;;;;;18.00;99.90;;;;;;5054940;28;19913;-70
2023/12/02 00:36:51;;;;;;;;;;;18.00;99.90;;;;;;5053699;28;20012;-68
2023/12/02 00:39:16;;;;;;;;;;;18.00;99.90;;;;;;5054149;28;19996;-68
2023/12/02 00:41:43;;;;;;;;;;;17.90;99.90;;;;;;5053665;28;20380;-68
2023/12/02 00:44:10;;;;;;;;;;;17.90;99.90;;;;;;5055152;28;20376;-67
2023/12/02 00:46:36;;;;;;;;;;;17.90;99.90;;;;;;5053501;28;19916;-68
2023/12/02 00:49:02;;;;;;;;;;;17.90;99.90;;;;;;5054634;28;20274;-64
2023/12/02 00:51:28;;;;;;;;;;;17.90;99.90;;;;;;5068473;28;19979;-69
2023/12/02 00:53:56;;;;;;;;;;;17.90;99.90;;;;;;5074722;28;19913;-68
2023/12/02 00:56:22;;;;;;;;;;;17.90;99.90;;;;;;5074804;28;19908;-68
2023/12/02 00:58:47;;;;;;;;;;;17.80;99.90;;;;;;5075126;28;20195;-68
2023/12/02 01:01:15;;;;;;;;;;;17.80;99.90;;;;;;5065936;28;20399;-68
2023/12/02 01:03:41;;;;;;;;;;;17.80;99.90;;;;;;5048408;28;20004;-68
2023/12/02 01:06:09;;;;;;;;;;;17.90;99.90;;;;;;5052705;28;20375;-69
2023/12/02 01:08:38;;;;;;;;;;;17.80;99.90;;;;;;5050445;28;19909;-68
2023/12/02 01:11:04;;;;;;;;;;;17.90;99.90;;;;;;5064162;28;19928;-67
2023/12/02 01:13:30;;;;;;;;;;;17.90;99.90;;;;;;5064073;28;19908;-69
2023/12/02 01:15:56;;;;;;;;;;;17.90;99.90;;;;;;5053113;28;19909;-69
2023/12/02 01:18:22;;;;;;;;;;;18.00;99.90;;;;;;5054266;28;19919;-68
2023/12/02 01:20:48;;;;;;;;;;;18.00;99.90;;;;;;5062496;28;19909;-68
2023/12/02 01:23:14;;;;;;;;;;;18.00;99.90;;;;;;5074296;28;19920;-69
2023/12/02 01:25:40;;;;;;;;;;;18.00;99.90;;;;;;5074112;28;20005;-68
2023/12/02 01:28:06;;;;;;;;;;;17.90;99.90;;;;;;5074055;28;19953;-69
2023/12/02 01:30:32;;;;;;;;;;;17.90;99.90;;;;;;5074211;28;19908;-67
2023/12/02 01:32:58;;;;;;;;;;;17.90;99.90;;;;;;5063491;28;19961;-68
2023/12/02 01:35:25;;;;;;;;;;;18.00;99.90;;;;;;5054478;28;19920;-69
2023/12/02 01:37:51;;;;;;;;;;;18.00;99.90;;;;;;5054120;28;19909;-68
2023/12/02 01:40:17;;;;;;;;;;;18.00;99.90;;;;;;5054483;28;19915;-68
2023/12/02 01:42:43;;;;;;;;;;;18.00;99.90;;;;;;5053952;28;19909;-69
2023/12/02 01:45:09;;;;;;;;;;;17.90;99.90;;;;;;5053815;28;19916;-68
2023/12/02 01:47:35;;;;;;;;;;;17.90;99.90;;;;;;5052542;28;19970;-68
2023/12/02 01:50:01;;;;;;;;;;;18.00;99.90;;;;;;5055221;28;19909;-69
2023/12/02 01:52:27;;;;;;;;;;;18.00;99.90;;;;;;5074344;28;19966;-69
2023/12/02 01:54:54;;;;;;;;;;;18.00;99.90;;;;;;5073994;28;19912;-69
2023/12/02 01:57:20;;;;;;;;;;;17.90;99.90;;;;;;5072251;28;19909;-68
2023/12/02 01:59:53;;;;;;;;;;;17.90;99.90;;;;;;5073476;28;19909;-69
2023/12/02 02:02:20;;;;;;;;;;;18.00;99.90;;;;;;5068148;28;19917;-69
2023/12/02 02:04:48;;;;;;;;;;;18.00;99.90;;;;;;5053315;28;20030;-68
2023/12/02 02:07:14;;;;;;;;;;;17.90;99.90;;;;;;5053565;28;19917;-68
2023/12/02 02:09:49;;;;;;;;;;;17.90;99.90;;;;;;5052687;28;19908;-68
2023/12/02 02:12:15;;;;;;;;;;;17.90;99.90;;;;;;5053420;28;19944;-68
2023/12/02 02:14:41;;;;;;;;;;;18.00;99.90;;;;;;5052105;28;20355;-68
2023/12/02 02:17:06;;;;;;;;;;;18.00;99.90;;;;;;5053522;28;20241;-68
2023/12/02 02:19:32;;;;;;;;;;;18.00;99.90;;;;;;5053147;28;19995;-69
2023/12/02 02:21:58;;;;;;;;;;;18.00;99.90;;;;;;5047338;28;19920;-69
2023/12/02 02:24:24;;;;;;;;;;;17.90;99.90;;;;;;5053008;28;20545;-69
2023/12/02 02:26:50;;;;;;;;;;;18.00;99.90;;;;;;5050471;28;19917;-68
2023/12/02 02:29:16;;;;;;;;;;;18.00;99.90;;;;;;5033084;28;19917;-69
2023/12/02 02:31:42;;;;;;;;;;;18.00;99.90;;;;;;5033030;28;19910;-69
2023/12/02 02:34:08;;;;;;;;;;;17.90;99.90;;;;;;5033476;28;19954;-67
2023/12/02 02:36:34;;;;;;;;;;;17.90;99.90;;;;;;5033011;28;19963;-69
2023/12/02 02:38:59;;;;;;;;;;;17.90;99.90;;;;;;5031495;28;20370;-69
2023/12/02 02:41:25;;;;;;;;;;;18.00;99.90;;;;;;5033263;28;20365;-69
2023/12/02 02:43:51;;;;;;;;;;;18.00;99.90;;;;;;5043045;28;19909;-68
2023/12/02 02:46:17;;;;;;;;;;;18.00;99.90;;;;;;5053002;28;20028;-68
2023/12/02 02:48:43;;;;;;;;;;;18.00;99.90;;;;;;5053052;28;19912;-68
2023/12/02 02:51:08;;;;;;;;;;;18.00;99.90;;;;;;5063301;28;19954;-68
2023/12/02 02:53:34;;;;;;;;;;;18.00;99.90;;;;;;5072511;28;19999;-70
2023/12/02 02:56:00;;;;;;;;;;;18.00;99.90;;;;;;5072739;28;20277;-69
2023/12/02 02:58:28;;;;;;;;;;;18.00;99.90;;;;;;5070573;28;19909;-68
2023/12/02 03:00:54;;;;;;;;;;;18.00;99.90;;;;;;5031313;28;19909;-69
2023/12/02 03:03:21;;;;;;;;;;;18.00;99.90;;;;;;5032762;28;20424;-69
2023/12/02 03:05:47;;;;;;;;;;;18.00;99.90;;;;;;5032413;28;19917;-66
2023/12/02 03:08:13;;;;;;;;;;;17.90;99.90;;;;;;5032373;28;20235;-68
2023/12/02 03:10:39;;;;;;;;;;;17.90;99.90;;;;;;5032370;28;19955;-65
2023/12/02 03:13:04;;;;;;;;;;;18.00;99.90;;;;;;5032363;28;19959;-69
2023/12/02 03:15:30;;;;;;;;;;;18.00;99.90;;;;;;5040747;28;19909;-68
2023/12/02 03:17:57;;;;;;;;;;;18.00;99.90;;;;;;5052138;28;19951;-67
2023/12/02 03:20:23;;;;;;;;;;;18.00;99.90;;;;;;5055827;28;19909;-68
2023/12/02 03:22:49;;;;;;;;;;;18.00;99.90;;;;;;5072056;28;19915;-69
2023/12/02 03:25:15;;;;;;;;;;;18.00;99.90;;;;;;5072503;28;19955;-68
2023/12/02 03:27:41;;;;;;;;;;;18.00;99.90;;;;;;5072334;28;20006;-69
2023/12/02 03:30:07;;;;;;;;;;;18.00;99.90;;;;;;5072215;28;19962;-68
2023/12/02 03:32:33;;;;;;;;;;;18.00;99.90;;;;;;5104982;28;20311;-69
2023/12/02 03:34:59;;;;;;;;;;;18.00;99.90;;;;;;5071680;28;20396;-69
2023/12/02 03:37:25;;;;;;;;;;;18.00;99.90;;;;;;5071471;28;19915;-68
2023/12/02 03:39:51;;;;;;;;;;;18.00;99.90;;;;;;5072429;28;19908;-70
2023/12/02 03:42:17;;;;;;;;;;;18.00;99.90;;;;;;5071635;28;19916;-68
2023/12/02 03:44:43;;;;;;;;;;;18.00;99.90;;;;;;5072382;28;20420;-68
2023/12/02 03:47:08;;;;;;;;;;;17.90;99.90;;;;;;5071790;28;19924;-69
2023/12/02 03:49:34;;;;;;;;;;;17.90;99.90;;;;;;5071914;28;19997;-69
2023/12/02 03:52:00;;;;;;;;;;;18.00;99.90;;;;;;5053894;28;19909;-68
2023/12/02 03:54:26;;;;;;;;;;;17.90;99.90;;;;;;5050181;28;19909;-68
2023/12/02 03:56:52;;;;;;;;;;;17.90;99.90;;;;;;5051634;28;19916;-68
2023/12/02 03:59:18;;;;;;;;;;;17.90;99.90;;;;;;5083719;28;20317;-68
2023/12/02 04:01:44;;;;;;;;;;;17.80;99.90;;;;;;5051981;28;19908;-69
2023/12/02 04:04:09;;;;;;;;;;;17.80;99.90;;;;;;5051940;28;19920;-69
2023/12/02 04:06:35;;;;;;;;;;;17.80;99.90;;;;;;5052345;28;19921;-69
2023/12/02 04:09:01;;;;;;;;;;;17.80;99.90;;;;;;5052231;28;20007;-69
2023/12/02 04:11:27;;;;;;;;;;;17.80;99.90;;;;;;5052206;28;19962;-68
2023/12/02 04:13:53;;;;;;;;;;;17.70;99.90;;;;;;5052695;28;19962;-69
2023/12/02 04:16:18;;;;;;;;;;;17.70;99.90;;;;;;5052426;28;19960;-68
2023/12/02 04:18:44;;;;;;;;;;;17.70;99.90;;;;;;5084302;28;19913;-70
2023/12/02 04:21:10;;;;;;;;;;;17.80;99.90;;;;;;5063140;28;19959;-71
2023/12/02 04:23:37;;;;;;;;;;;17.80;99.90;;;;;;5072228;28;19962;-69
2023/12/02 04:26:08;;;;;;;;;;;17.80;99.90;;;;;;5057656;28;19920;-64
2023/12/02 04:28:34;;;;;;;;;;;17.80;99.90;;;;;;5063159;28;19913;-68
2023/12/02 04:31:00;;;;;;;;;;;17.70;99.90;;;;;;5050377;28;19917;-66
2023/12/02 04:33:26;;;;;;;;;;;17.70;99.90;;;;;;5062171;28;20054;-66
2023/12/02 04:35:52;;;;;;;;;;;17.70;99.90;;;;;;5059300;28;20002;-68
2023/12/02 04:38:18;;;;;;;;;;;17.70;99.90;;;;;;5056455;28;20003;-69
2023/12/02 04:40:43;;;;;;;;;;;17.70;99.90;;;;;;5056804;28;19909;-68
2023/12/02 04:43:09;;;;;;;;;;;17.60;99.90;;;;;;5056707;28;19978;-68
2023/12/02 04:45:35;;;;;;;;;;;17.60;99.90;;;;;;5056954;28;19936;-68
2023/12/02 04:48:01;;;;;;;;;;;17.60;99.90;;;;;;5047931;28;19999;-68
2023/12/02 04:50:27;;;;;;;;;;;17.60;99.90;;;;;;5052502;28;20280;-68
2023/12/02 04:52:53;;;;;;;;;;;17.60;99.90;;;;;;5046892;28;19916;-68
2023/12/02 04:55:20;;;;;;;;;;;17.60;99.90;;;;;;5043149;28;19912;-69
2023/12/02 04:57:46;;;;;;;;;;;17.50;99.90;;;;;;5045044;28;19909;-68
2023/12/02 05:00:16;;;;;;;;;;;17.50;99.90;;;;;;5067524;28;20238;-67
2023/12/02 05:02:43;;;;;;;;;;;17.60;99.90;;;;;;5066849;28;20338;-69
2023/12/02 05:05:14;;;;;;;;;;;17.50;99.90;;;;;;5064794;28;20407;-67
2023/12/02 05:07:46;;;;;;;;;;;17.50;99.90;;;;;;5061602;28;19924;-64
2023/12/02 05:10:13;;;;;;;;;;;17.50;99.90;;;;;;5064549;28;19955;-67
2023/12/02 05:12:40;;;;;;;;;;;17.50;99.90;;;;;;5066322;28;19909;-69
2023/12/02 05:15:06;;;;;;;;;;;17.50;99.90;;;;;;5073570;28;19966;-68
2023/12/02 05:17:32;;;;;;;;;;;17.40;99.90;;;;;;5075246;28;19944;-68
2023/12/02 05:19:58;;;;;;;;;;;17.40;99.90;;;;;;5075257;28;19908;-69
2023/12/02 05:22:24;;;;;;;;;;;17.40;99.90;;;;;;5076094;28;19915;-71
2023/12/02 05:24:50;;;;;;;;;;;17.50;99.90;;;;;;5075482;28;20403;-68
2023/12/02 05:27:16;;;;;;;;;;;17.50;99.90;;;;;;5076052;28;19970;-68
2023/12/02 05:29:42;;;;;;;;;;;17.60;99.90;;;;;;5075541;28;20269;-68
2023/12/02 05:32:08;;;;;;;;;;;17.60;99.90;;;;;;5071902;28;19916;-69
2023/12/02 05:34:34;;;;;;;;;;;17.60;99.90;;;;;;5056021;28;19909;-69
2023/12/02 05:36:59;;;;;;;;;;;17.60;99.90;;;;;;5055430;28;20011;-79
2023/12/02 05:39:25;;;;;;;;;;;17.60;99.90;;;;;;5055343;28;19991;-71
2023/12/02 05:41:51;;;;;;;;;;;17.60;99.90;;;;;;5054088;28;19954;-70
2023/12/02 05:44:17;;;;;;;;;;;17.60;99.90;;;;;;5054485;28;19909;-71
2023/12/02 05:46:43;;;;;;;;;;;17.60;99.90;;;;;;5055724;28;19917;-70
2023/12/02 05:49:09;;;;;;;;;;;17.60;99.90;;;;;;5055165;28;19909;-72
2023/12/02 05:51:40;;;;;;;;;;;17.60;99.90;;;;;;5057859;28;19915;-71
2023/12/02 05:54:08;;;;;;;;;;;17.60;99.90;;;;;;5069375;28;19913;-74
2023/12/02 05:56:37;;;;;;;;;;;17.60;99.90;;;;;;5059618;28;20349;-67
2023/12/02 05:59:04;;;;;;;;;;;17.60;99.90;;;;;;5073684;28;20323;-72
2023/12/02 06:01:31;;;;;;;;;;;17.50;99.90;;;;;;5074933;28;19935;-71
2023/12/02 06:03:57;;;;;;;;;;;17.60;99.90;;;;;;5055326;28;19925;-75
2023/12/02 06:06:23;;;;;;;;;;;17.60;99.90;;;;;;5057798;28;19959;-74
2023/12/02 06:08:49;;;;;;;;;;;17.60;99.90;;;;;;5054944;28;20380;-72
2023/12/02 06:11:15;;;;;;;;;;;17.60;99.90;;;;;;5055351;28;19908;-72
2023/12/02 06:13:40;;;;;;;;;;;17.60;99.90;;;;;;5054785;28;19932;-72
2023/12/02 06:16:07;;;;;;;;;;;17.70;99.90;;;;;;5054784;28;19908;-72
2023/12/02 06:18:33;;;;;;;;;;;17.70;99.90;;;;;;5054737;28;19909;-72
2023/12/02 06:20:59;;;;;;;;;;;17.70;99.90;;;;;;5062646;28;19952;-72
2023/12/02 06:23:24;;;;;;;;;;;17.70;99.90;;;;;;5074708;28;20336;-73
2023/12/02 06:25:50;;;;;;;;;;;17.70;99.90;;;;;;5074823;28;19913;-72
2023/12/02 06:28:16;;;;;;;;;;;17.70;99.90;;;;;;5106470;28;19931;-72
2023/12/02 06:30:42;;;;;;;;;;;17.80;99.90;;;;;;5074023;28;20046;-73
2023/12/02 06:33:08;;;;;;;;;;;17.80;99.90;;;;;;5062135;28;20346;-71
2023/12/02 06:35:34;;;;;;;;;;;17.90;99.90;;;;;;5054053;28;19909;-72
2023/12/02 06:38:00;;;;;;;;;;;17.90;99.90;;;;;;5053900;28;20320;-71
2023/12/02 06:40:26;;;;;;;;;;;17.90;99.90;;;;;;5054104;28;19919;-71
2023/12/02 06:42:51;;;;;;;;;;;18.00;99.90;;;;;;5053806;28;19908;-72
2023/12/02 06:45:17;;;;;;;;;;;18.00;99.90;;;;;;5053503;28;19935;-72
2023/12/02 06:47:44;;;;;;;;;;;18.00;99.90;;;;;;5085014;28;19940;-72
2023/12/02 06:50:11;;;;;;;;;;;18.00;99.90;;;;;;5055824;28;20064;-72
2023/12/02 06:52:37;;;;;;;;;;;18.00;99.90;;;;;;5072717;28;20291;-74
2023/12/02 06:55:03;;;;;;;;;;;18.00;99.90;;;;;;5072533;28;20003;-72
2023/12/02 06:57:29;;;;;;;;;;;18.10;99.90;;;;;;5073337;28;20234;-71
2023/12/02 06:59:55;;;;;;;;;;;18.20;99.90;;;;;;5104797;28;19920;-73
2023/12/02 07:02:21;;;;;;;;;;;18.20;99.90;;;;;;5039770;28;19913;-71
2023/12/02 07:04:47;;;;;;;;;;;18.30;99.90;;;;;;5084275;28;20312;-72
2023/12/02 07:07:13;;;;;;;;;;;18.40;99.90;;;;;;5052715;28;19916;-73
2023/12/02 07:09:38;;;;;;;;;;;18.40;99.90;;;;;;5052620;28;19909;-74
2023/12/02 07:12:04;;;;;;;;;;;18.50;99.90;;;;;;5051003;28;19956;-74
2023/12/02 07:14:30;;;;;;;;;;;18.50;99.90;;;;;;5050930;28;19996;-73
2023/12/02 07:16:56;;;;;;;;;;;18.70;99.90;;;;;;5051208;28;19978;-73
2023/12/02 07:19:22;;;;;;;;;;;18.80;99.90;;;;;;5052773;28;19916;-73
2023/12/02 07:21:47;;;;;;;;;;;18.90;99.90;;;;;;5068737;28;19962;-72
2023/12/02 07:24:14;;;;;;;;;;;19.00;99.90;;;;;;5072662;28;19913;-73
2023/12/02 07:26:40;;;;;;;;;;;19.10;99.90;;;;;;5072479;28;20056;-73
2023/12/02 07:29:05;;;;;;;;;;;19.20;99.90;;;;;;5073045;28;19944;-73
2023/12/02 07:31:31;;;;;;;;;;;19.30;99.90;;;;;;5072627;28;19966;-73
2023/12/02 07:33:57;;;;;;;;;;;19.40;99.90;;;;;;5053888;28;19931;-73
2023/12/02 07:36:24;;;;;;;;;;;19.40;99.90;;;;;;5053430;28;19931;-72
2023/12/02 07:38:51;;;;;;;;;;;19.60;99.90;;;;;;5084276;28;19927;-70
2023/12/02 07:41:17;;;;;;;;;;;19.90;99.90;;;;;;5053161;28;19909;-73
2023/12/02 07:43:43;;;;;;;;;;;20.20;99.90;;;;;;5052356;28;20438;-73
2023/12/02 07:46:09;;;;;;;;;;;20.40;99.90;;;;;;5052309;28;20003;-73
2023/12/02 07:48:35;;;;;;;;;;;20.50;99.90;;;;;;5052763;28;19908;-74
2023/12/02 07:51:04;;;;;;;;;;;20.50;99.90;;;;;;5062036;28;19912;-71
2023/12/02 07:53:30;;;;;;;;;;;20.60;99.90;;;;;;5071200;28;19920;-80
2023/12/02 07:55:56;;;;;;;;;;;20.70;99.90;;;;;;5072787;28;19912;-75
2023/12/02 07:58:22;;;;;;;;;;;20.90;99.90;;;;;;5105291;28;19916;-72
2023/12/02 08:00:48;;;;;;;;;;;21.00;99.90;;;;;;5072413;28;20015;-73
2023/12/02 08:03:14;;;;;;;;;;;21.10;99.90;;;;;;5071980;28;19927;-73
2023/12/02 08:05:40;;;;;;;;;;;21.20;99.90;;;;;;5072233;28;20368;-78
2023/12/02 08:08:08;;;;;;;;;;;21.40;99.90;;;;;;5076012;28;20435;-71
2023/12/02 08:10:35;;;;;;;;;;;21.50;99.90;;;;;;5076340;28;19909;-74
2023/12/02 08:13:00;;;;;;;;;;;21.70;99.90;;;;;;5075962;28;19935;-72
2023/12/02 08:15:26;;;;;;;;;;;21.80;99.90;;;;;;5057016;28;19917;-75
2023/12/02 08:17:52;;;;;;;;;;;21.80;99.90;;;;;;5042454;28;19916;-74
2023/12/02 08:20:18;;;;;;;;;;;21.90;99.90;;;;;;5059637;28;19913;-70
2023/12/02 08:22:45;;;;;;;;;;;21.90;99.90;;;;;;5091373;28;20365;-74
2023/12/02 08:25:11;;;;;;;;;;;22.00;99.90;;;;;;5055638;28;19955;-73
2023/12/02 08:27:38;;;;;;;;;;;22.00;99.90;;;;;;5055496;28;19956;-74
2023/12/02 08:30:05;;;;;;;;;;;22.00;99.90;;;;;;5049187;28;19951;-73
2023/12/02 08:32:31;;;;;;;;;;;22.00;99.90;;;;;;5035515;28;19962;-73
2023/12/02 08:34:57;;;;;;;;;;;22.00;99.90;;;;;;5035760;28;19913;-73
2023/12/02 08:37:23;;;;;;;;;;;21.90;99.90;;;;;;5036261;28;20312;-73
2023/12/02 08:39:49;;;;;;;;;;;22.00;99.90;;;;;;5035613;28;19932;-73
2023/12/02 08:42:15;;;;;;;;;;;22.00;99.90;;;;;;5035017;28;19952;-74
2023/12/02 08:44:42;;;;;;;;;;;21.90;99.90;;;;;;5035534;28;19909;-73
2023/12/02 08:47:08;;;;;;;;;;;21.90;99.90;;;;;;5035534;28;19936;-73
2023/12/02 08:49:34;;;;;;;;;;;21.90;99.90;;;;;;5035666;28;19909;-73
2023/12/02 08:51:59;;;;;;;;;;;21.90;99.90;;;;;;5035371;28;19955;-72
2023/12/02 08:54:25;;;;;;;;;;;21.90;99.90;;;;;;5035261;28;20277;-72
2023/12/02 08:56:51;;;;;;;;;;;21.80;99.90;;;;;;5035530;28;19955;-73
2023/12/02 08:59:17;;;;;;;;;;;21.80;99.90;;;;;;5033690;28;20004;-72
2023/12/02 09:01:43;;;;;;;;;;;21.80;99.90;;;;;;5047877;28;20253;-72
2023/12/02 09:04:09;;;;;;;;;;;21.80;99.90;;;;;;5032520;28;19921;-73
2023/12/02 09:06:35;;;;;;;;;;;21.70;99.90;;;;;;5033882;28;19924;-72
2023/12/02 09:09:01;;;;;;;;;;;21.70;99.90;;;;;;5033838;28;20326;-73
2023/12/02 09:11:28;;;;;;;;;;;21.70;99.90;;;;;;5033203;28;20349;-72
2023/12/02 09:13:54;;;;;;;;;;;21.80;99.90;;;;;;5034950;28;19996;-75
2023/12/02 09:16:21;;;;;;;;;;;21.90;99.90;;;;;;5033309;28;19960;-70
2023/12/02 09:18:47;;;;;;;;;;;22.10;99.90;;;;;;5031789;28;19909;-74
2023/12/02 09:21:19;;;;;;;;;;;22.20;99.90;;;;;;5056871;28;19916;-74
2023/12/02 09:23:46;;;;;;;;;;;22.30;99.90;;;;;;5074916;28;19909;-73
2023/12/02 09:26:31;;;;;;;;;;;22.50;99.90;;;;;;5074543;28;19916;-73
2023/12/02 09:28:57;;;;;;;;;;;22.50;99.90;;;;;;5075052;28;19919;-72
2023/12/02 09:31:24;;;;;;;;;;;22.50;99.90;;;;;;5074672;28;19995;-73
2023/12/02 09:34:16;;;;;;;;;;;22.60;99.90;;;;;;5056841;28;19924;-73
2023/12/02 09:36:42;;;;;;;;;;;22.80;99.90;;;;;;5055223;28;20276;-74
2023/12/02 09:39:08;;;;;;;;;;;22.80;99.90;;;;;;5053070;28;19909;-72
2023/12/02 09:41:42;;;;;;;;;;;22.80;99.90;;;;;;5053275;28;19929;-74
2023/12/02 09:44:24;;;;;;;;;;;22.80;99.90;;;;;;5054888;28;19908;-73
2023/12/02 09:46:53;;;;;;;;;;;22.50;99.90;;;;;;5054169;28;20392;-73
2023/12/02 09:49:27;;;;;;;;;;;22.20;99.90;;;;;;5054265;28;19909;-73
2023/12/02 09:51:56;;;;;;;;;;;21.80;99.90;;;;;;5071038;28;20011;-73
2023/12/02 09:54:40;;;;;;;;;;;21.80;99.90;;;;;;5106687;28;19939;-74
2023/12/02 09:57:22;;;;;;;;;;;21.80;99.90;;;;;;5072683;28;19928;-75
2023/12/02 09:59:48;;;;;;;;;;;21.70;99.90;;;;;;5048583;28;19913;-74
2023/12/02 10:02:17;;;;;;;;;;;21.60;99.90;;;;;;5048394;28;19963;-72
2023/12/02 10:04:45;;;;;;;;;;;21.40;99.90;;;;;;5045834;28;19932;-73
2023/12/02 10:07:17;;;;;;;;;;;21.50;99.90;;;;;;5042922;28;19920;-75
2023/12/02 10:09:50;;;;;;;;;;;21.50;99.90;;;;;;5035703;28;19975;-74
2023/12/02 10:12:24;;;;;;;;;;;21.60;99.90;;;;;;5051519;28;19913;-68
2023/12/02 10:14:59;;;;;;;;;;;21.80;99.90;;;;;;5032461;28;19910;-72
2023/12/02 10:17:25;;;;;;;;;;;22.00;99.90;;;;;;5033619;28;19982;-72
2023/12/02 10:19:52;;;;;;;;;;;22.10;99.90;;;;;;5033678;28;19995;-76
2023/12/02 10:22:19;;;;;;;;;;;22.30;99.90;;;;;;5033695;28;20277;-77
2023/12/02 10:24:45;;;;;;;;;;;22.50;99.90;;;;;;5049797;28;20258;-74
2023/12/02 10:27:16;;;;;;;;;;;22.60;99.90;;;;;;5053197;28;19962;-73
2023/12/02 10:29:42;;;;;;;;;;;22.80;99.90;;;;;;5053200;28;20004;-73
2023/12/02 10:32:30;;;;;;;;;;;22.90;99.90;;;;;;5035429;28;19951;-71
2023/12/02 10:35:07;;;;;;;;;;;23.10;99.90;;;;;;5034547;28;19913;-71
2023/12/02 10:37:38;;;;;;;;;;;23.10;99.90;;;;;;5042124;28;19913;-73
2023/12/02 10:40:08;;;;;;;;;;;23.00;99.90;;;;;;5033126;28;20427;-72
2023/12/02 10:42:40;;;;;;;;;;;23.10;99.90;;;;;;5033228;28;20354;-69
2023/12/02 10:45:07;;;;;;;;;;;22.90;99.90;;;;;;5033321;28;19913;-73
2023/12/02 10:47:33;;;;;;;;;;;22.80;99.90;;;;;;5033060;28;19917;-69
2023/12/02 10:49:59;;;;;;;;;;;22.70;99.90;;;;;;5034973;28;19909;-73
2023/12/02 10:52:27;;;;;;;;;;;22.80;99.90;;;;;;5071316;28;19912;-73
2023/12/02 10:54:56;;;;;;;;;;;22.80;99.90;;;;;;5071284;28;20376;-73
2023/12/02 10:57:22;;;;;;;;;;;22.80;99.90;;;;;;5072696;28;19909;-72
2023/12/02 11:00:03;;;;;;;;;;;22.80;99.90;;;;;;5072821;28;20003;-73
2023/12/02 11:02:41;;;;;;;;;;;22.80;99.90;;;;;;5064452;28;19909;-73
2023/12/02 11:05:18;;;;;;;;;;;22.60;99.90;;;;;;5051302;28;20056;-77
2023/12/02 11:07:47;;;;;;;;;;;22.60;99.90;;;;;;5053270;28;19917;-73
2023/12/02 11:10:36;;;;;;;;;;;22.50;99.90;;;;;;5050478;28;20504;-72
2023/12/02 11:13:04;;;;;;;;;;;22.40;99.90;;;;;;5050831;28;19909;-71
2023/12/02 11:15:32;;;;;;;;;;;22.20;99.90;;;;;;5052129;28;19954;-71
2023/12/02 11:18:05;;;;;;;;;;;21.70;99.90;;;;;;5052625;28;19931;-73
2023/12/02 11:20:43;;;;;;;;;;;21.70;99.90;;;;;;5056136;28;20257;-74
2023/12/02 11:23:11;;;;;;;;;;;21.70;99.90;;;;;;5072227;28;20333;-74
2023/12/02 11:25:43;;;;;;;;;;;21.50;99.90;;;;;;5104579;28;19958;-73
2023/12/02 11:28:27;;;;;;;;;;;21.60;99.90;;;;;;5072151;28;19940;-73
2023/12/02 11:30:56;;;;;;;;;;;21.60;99.90;;;;;;5072777;28;20213;-72
2023/12/02 11:33:39;;;;;;;;;;;21.40;99.90;;;;;;5072410;28;19909;-72
2023/12/02 11:36:04;;;;;;;;;;;21.30;99.90;;;;;;5104912;28;19958;-72
2023/12/02 11:38:34;;;;;;;;;;;21.20;99.90;;;;;;5072681;28;19910;-72
2023/12/02 11:41:11;;;;;;;;;;;21.00;99.90;;;;;;5071866;28;19927;-70
2023/12/02 11:43:49;;;;;;;;;;;21.10;99.90;;;;;;5104726;28;19962;-70
2023/12/02 11:46:22;;;;;;;;;;;21.10;99.90;;;;;;5071976;28;19926;-71
2023/12/02 11:49:06;;;;;;;;;;;20.90;99.90;;;;;;5072336;28;19908;-72
2023/12/02 11:51:52;;;;;;;;;;;20.90;99.90;;;;;;5058207;28;20257;-72
2023/12/02 11:54:25;;;;;;;;;;;20.60;99.90;;;;;;5051867;28;19909;-72
2023/12/02 11:57:14;;;;;;;;;;;20.60;99.90;;;;;;5084023;28;20341;-70
2023/12/02 12:00:08;;;;;;;;;;;20.60;99.90;;;;;;5053851;28;19915;-71
2023/12/02 12:03:03;;;;;;;;;;;20.60;99.90;;;;;;5049521;28;19909;-71
2023/12/02 12:05:36;;;;;;;;;;;20.60;99.90;;;;;;5052207;28;19921;-72
2023/12/02 12:08:11;;;;;;;;;;;20.70;99.90;;;;;;5052228;28;20019;-73
2023/12/02 12:10:40;;;;;;;;;;;20.70;99.90;;;;;;5084543;28;19913;-72
2023/12/02 12:13:08;;;;;;;;;;;20.80;99.90;;;;;;5051887;28;19916;-72
2023/12/02 12:15:35;;;;;;;;;;;20.90;99.90;;;;;;5051829;28;19971;-71
2023/12/02 12:18:01;;;;;;;;;;;21.00;99.90;;;;;;5052557;28;19909;-72
2023/12/02 12:20:27;;;;;;;;;;;21.10;99.90;;;;;;5055689;28;19922;-69
2023/12/02 12:22:52;;;;;;;;;;;21.00;99.90;;;;;;5072374;28;20272;-71
2023/12/02 12:25:19;;;;;;;;;;;21.00;99.90;;;;;;5072137;28;20360;-71
2023/12/02 12:27:45;;;;;;;;;;;21.00;99.90;;;;;;5071826;28;19917;-72
2023/12/02 12:30:11;;;;;;;;;;;21.00;99.90;;;;;;5072396;28;20265;-72
2023/12/02 12:32:38;;;;;;;;;;;20.90;99.90;;;;;;5071949;28;19916;-71
2023/12/02 12:35:11;;;;;;;;;;;21.00;99.90;;;;;;5072043;28;19931;-70
2023/12/02 12:37:37;;;;;;;;;;;21.00;99.90;;;;;;5072150;28;19912;-72
2023/12/02 12:40:03;;;;;;;;;;;21.00;99.90;;;;;;5070330;28;19916;-72
2023/12/02 12:42:29;;;;;;;;;;;21.10;99.90;;;;;;5072175;28;20017;-72
2023/12/02 12:45:00;;;;;;;;;;;21.20;99.90;;;;;;5071935;28;20289;-71
2023/12/02 12:47:27;;;;;;;;;;;21.20;99.90;;;;;;5071563;28;19924;-72
2023/12/02 12:49:54;;;;;;;;;;;21.30;99.90;;;;;;5071702;28;19908;-71
2023/12/02 12:52:20;;;;;;;;;;;21.30;99.90;;;;;;5052941;28;19913;-72
2023/12/02 12:54:55;;;;;;;;;;;21.30;99.90;;;;;;5055913;28;19913;-70
2023/12/02 12:57:29;;;;;;;;;;;21.30;99.90;;;;;;5056056;28;19909;-70
2023/12/02 12:59:59;;;;;;;;;;;21.30;99.90;;;;;;5056651;28;19909;-70
2023/12/02 13:02:28;;;;;;;;;;;21.20;99.90;;;;;;5088164;28;20387;-69
2023/12/02 13:04:59;;;;;;;;;;;21.10;99.90;;;;;;5056497;28;20027;-71
2023/12/02 13:07:32;;;;;;;;;;;20.90;99.90;;;;;;5055720;28;20266;-70
2023/12/02 13:10:01;;;;;;;;;;;20.80;99.90;;;;;;5054421;28;19909;-71
2023/12/02 13:12:28;;;;;;;;;;;20.80;99.90;;;;;;5054500;28;19913;-71
2023/12/02 13:14:58;;;;;;;;;;;20.90;99.90;;;;;;5055914;28;19935;-71
2023/12/02 13:17:23;;;;;;;;;;;21.00;99.90;;;;;;5056120;28;19920;-71
2023/12/02 13:19:49;;;;;;;;;;;20.80;99.90;;;;;;5055951;28;19909;-71
2023/12/02 13:22:16;;;;;;;;;;;20.80;99.90;;;;;;5055771;28;20325;-71
2023/12/02 13:24:59;;;;;;;;;;;20.90;99.90;;;;;;5054562;28;19908;-71
2023/12/02 13:27:33;;;;;;;;;;;20.90;99.90;;;;;;5056523;28;20012;-71
2023/12/02 13:30:02;;;;;;;;;;;20.90;99.90;;;;;;5055700;28;19909;-71
2023/12/02 13:32:29;;;;;;;;;;;20.70;99.90;;;;;;5049144;28;19952;-71
2023/12/02 13:35:06;;;;;;;;;;;20.70;99.90;;;;;;5034443;28;19917;-71
2023/12/02 13:37:53;;;;;;;;;;;20.60;99.90;;;;;;5035535;28;19948;-71
2023/12/02 13:40:21;;;;;;;;;;;20.60;99.90;;;;;;5034225;28;20004;-70
2023/12/02 13:42:49;;;;;;;;;;;20.50;99.90;;;;;;5035473;28;20353;-71
2023/12/02 13:45:17;;;;;;;;;;;20.30;99.90;;;;;;5035668;28;19909;-72
2023/12/02 13:47:49;;;;;;;;;;;20.50;99.90;;;;;;5034029;28;19924;-70
2023/12/02 13:50:17;;;;;;;;;;;20.40;99.90;;;;;;5073855;28;19939;-72
2023/12/02 13:52:43;;;;;;;;;;;20.40;99.90;;;;;;5075103;28;19908;-70
2023/12/02 13:55:21;;;;;;;;;;;20.30;99.90;;;;;;5074969;28;19916;-73
2023/12/02 13:57:59;;;;;;;;;;;20.30;99.90;;;;;;5075013;28;19913;-71
2023/12/02 14:00:50;;;;;;;;;;;20.10;99.90;;;;;;5075319;28;20276;-71
2023/12/02 14:03:43;;;;;;;;;;;20.00;99.90;;;;;;5061844;28;20277;-71
2023/12/02 14:06:19;;;;;;;;;;;20.00;99.90;;;;;;5072762;28;19912;-71
2023/12/02 14:08:49;;;;;;;;;;;20.00;99.90;;;;;;5055605;28;19945;-71
2023/12/02 14:11:17;;;;;;;;;;;19.90;99.90;;;;;;5073011;28;19915;-70
2023/12/02 14:14:09;;;;;;;;;;;19.80;99.90;;;;;;5072815;28;19909;-71
2023/12/02 14:16:44;;;;;;;;;;;19.60;99.90;;;;;;5072712;28;19908;-71
2023/12/02 14:19:29;;;;;;;;;;;19.50;99.90;;;;;;5072664;28;19958;-70
2023/12/02 14:22:11;;;;;;;;;;;19.40;99.90;;;;;;5089805;28;20412;-70